createdAt,value
2022-11-16T00:01:08.145Z,59.95
2022-11-16T00:11:09.382Z,61.02
2022-11-16T00:21:10.634Z,60.48
2022-11-16T00:31:11.873Z,60.01
2022-11-16T00:41:13.126Z,60.60
2022-11-16T00:51:14.427Z,60.96
2022-11-16T01:01:15.733Z,60.64
2022-11-16T01:11:17.044Z,61.53
2022-11-16T01:21:18.318Z,60.60
2022-11-16T01:31:19.619Z,61.50
2022-11-16T01:41:23.589Z,61.52
2022-11-16T01:51:24.859Z,61.54
2022-11-16T02:01:26.215Z,61.24
2022-11-16T02:11:27.514Z,61.99
2022-11-16T02:21:28.781Z,61.30
2022-11-16T02:31:30.033Z,61.45
2022-11-16T02:41:31.316Z,61.55
2022-11-16T02:51:32.571Z,62.10
2022-11-16T03:01:33.857Z,61.77
2022-11-16T03:11:35.142Z,62.02
2022-11-16T03:21:36.386Z,61.95
2022-11-16T03:31:37.610Z,61.47
2022-11-16T03:41:38.856Z,61.46
2022-11-16T03:51:40.113Z,61.39
2022-11-16T04:01:44.730Z,60.75
2022-11-16T04:11:46.316Z,60.54
2022-11-16T04:21:47.617Z,60.01
2022-11-16T04:31:48.896Z,60.26
2022-11-16T04:41:50.138Z,60.17
2022-11-16T04:51:51.371Z,59.50
2022-11-16T05:01:52.771Z,60.16
2022-11-16T05:11:54.122Z,59.75
2022-11-16T05:21:55.394Z,59.08
2022-11-16T05:31:56.700Z,59.00
2022-11-16T05:41:57.987Z,57.89
2022-11-16T05:51:59.241Z,57.60
2022-11-16T06:02:00.606Z,56.90
2022-11-16T06:12:01.862Z,56.80
2022-11-16T06:22:03.147Z,56.58
2022-11-16T06:32:04.621Z,56.10
2022-11-16T06:42:05.945Z,55.87
2022-11-16T06:52:07.245Z,55.33
2022-11-16T07:02:08.637Z,55.44
2022-11-16T07:12:10.065Z,55.19
2022-11-16T07:22:11.425Z,54.93
2022-11-16T07:32:12.683Z,55.27
2022-11-16T07:42:14.063Z,55.88
2022-11-16T07:52:15.419Z,56.47
2022-11-16T08:02:16.781Z,57.42
2022-11-16T08:12:18.068Z,57.75
2022-11-16T08:22:19.331Z,58.61
2022-11-16T08:32:20.712Z,59.14
2022-11-16T08:42:21.963Z,60.43
2022-11-16T08:52:23.315Z,60.48
2022-11-16T09:02:24.792Z,60.59
2022-11-16T09:12:26.139Z,61.46
2022-11-16T09:22:27.453Z,61.63
2022-11-16T09:32:28.692Z,61.42
2022-11-16T09:42:29.933Z,61.79
2022-11-16T09:52:31.567Z,61.30
2022-11-16T10:02:32.846Z,61.64
2022-11-16T10:12:34.249Z,61.26
2022-11-16T10:22:39.650Z,61.01
2022-11-16T10:32:47.425Z,60.86
2022-11-16T10:42:55.383Z,60.46
2022-11-16T10:53:03.426Z,60.63
2022-11-16T11:03:11.380Z,60.30
2022-11-16T11:13:20.417Z,59.66
2022-11-16T11:23:28.426Z,59.21
2022-11-16T11:33:36.646Z,58.20
2022-11-16T11:43:44.441Z,57.54
2022-11-16T11:53:53.442Z,56.49
2022-11-16T12:04:01.511Z,56.28
2022-11-16T12:14:09.382Z,56.29
2022-11-16T12:24:18.404Z,56.49
2022-11-16T12:34:26.462Z,56.87
2022-11-16T12:44:34.417Z,57.44
2022-11-16T12:54:57.935Z,57.20
2022-11-16T13:05:03.640Z,57.18
2022-11-16T13:15:04.999Z,57.10
2022-11-16T13:25:07.526Z,56.60
2022-11-16T13:35:15.410Z,56.66
2022-11-16T13:45:24.439Z,56.86
2022-11-16T13:55:32.463Z,56.67
2022-11-16T14:05:41.635Z,56.79
2022-11-16T14:15:49.462Z,56.43
2022-11-16T14:25:57.440Z,56.13
2022-11-16T14:36:05.443Z,55.75
2022-11-16T14:46:13.463Z,55.42
2022-11-16T14:56:22.433Z,54.87
2022-11-16T15:06:30.439Z,54.72
2022-11-16T15:16:38.436Z,54.21
2022-11-16T15:26:46.434Z,53.99
2022-11-16T15:36:47.754Z,53.91
2022-11-16T15:46:49.186Z,53.74
2022-11-16T15:56:50.600Z,53.75
2022-11-16T16:06:52.013Z,53.06
2022-11-16T16:16:53.394Z,52.84
2022-11-16T16:26:54.739Z,52.46
2022-11-16T16:36:56.131Z,52.48
2022-11-16T16:47:11.293Z,52.58
2022-11-16T16:57:12.631Z,52.66
2022-11-16T17:07:13.889Z,53.65
2022-11-16T17:17:15.288Z,54.32
2022-11-16T17:27:16.570Z,54.38
2022-11-16T17:37:17.963Z,54.15
2022-11-16T17:47:19.356Z,54.09
2022-11-16T17:57:20.703Z,54.11
2022-11-16T18:07:22.015Z,54.11
2022-11-16T18:17:23.457Z,54.04
2022-11-16T18:27:24.895Z,53.85
2022-11-16T18:37:26.133Z,53.66
2022-11-16T18:47:27.402Z,53.68
2022-11-16T18:57:28.633Z,53.90
2022-11-16T19:07:30.133Z,53.60
2022-11-16T19:17:31.415Z,53.68
2022-11-16T19:27:32.750Z,53.76
2022-11-16T19:37:34.085Z,53.69
2022-11-16T19:47:35.446Z,53.67
2022-11-16T19:57:36.703Z,53.55
2022-11-16T20:07:38.041Z,53.86
2022-11-16T20:17:39.305Z,53.92
2022-11-16T20:27:40.673Z,53.82
2022-11-16T20:37:41.991Z,53.33
2022-11-16T20:47:43.306Z,53.27
2022-11-16T20:57:44.672Z,53.59
2022-11-16T21:07:46.017Z,53.32
2022-11-16T21:17:47.468Z,53.43
2022-11-16T21:27:48.806Z,53.39
2022-11-16T21:37:50.247Z,53.47
2022-11-16T21:47:51.662Z,53.32
2022-11-16T21:57:52.983Z,53.66
2022-11-16T22:07:54.356Z,53.41
2022-11-16T22:17:55.618Z,53.51
2022-11-16T22:28:23.967Z,53.78
2022-11-16T22:38:29.635Z,53.90
2022-11-16T23:19:41.732Z,54.34
2022-11-16T23:29:46.107Z,54.61
